AirNav   Air Wisconsin pilot careers
 
 416 users online  

NR10
(formerly 4W9)
Pink Hill Airport
Pink Hill, North Carolina, USA

GOING TO PINK HILL?


FAA INFORMATION EFFECTIVE 08 NOVEMBER 2018

Location

FAA Identifier: NR10
Lat/Long: 35-03-02.5890N / 077-44-09.9130W
35-03.043150N / 077-44.165217W
35.0507192 / -77.7360869
(estimated)
Elevation: 144 ft. / 43.9 m (surveyed)
Variation: 08W (1985)
From city: 1 mile E of PINK HILL, NC
Time zone: UTC -5 (UTC -4 during Daylight Saving Time)
Zip code: 28572

Airport Operations

Airport use: Private use. Permission required prior to landing
Activation date: 08/1963
Control tower: no
ARTCC: WASHINGTON CENTER
FSS: RALEIGH FLIGHT SERVICE STATION
Attendance: UNATNDD
Wind indicator: lighted
Segmented circle: no
Beacon: white-green (lighted land airport)

Airport Communications

WX AWOS-3 at DPL (12 nm W): 120.675 (910-296-9688)
WX AWOS-3PT at OAJ (15 nm SE): 124.475 (910-324-5233)
WX AWOS-3 at ISO (18 nm N): 132.75 (252-522-2712)

Nearby radio navigation aids

VOR radial/distance  VOR name  Freq  Var
ISOr209/21.1KINSTON VORTAC109.6005W
EWNr276/34.0NEW BERN VOR/DME113.6008W

 
NDB name  Hdg/Dist  Freq  Var  ID
STALS198/11.727609WIS .. ...
CLINTON091/31.141209WCTZ -.-. - --..
DIXON342/32.119808WDIW -.. .. .--

Airport Services

Parking: tiedowns

Runway Information

Runway 1/19

Dimensions: 2800 x 85 ft. / 853 x 26 m
Surface: turf, in good condition
Runway edge lights: non-standard
NOT FAA APPROVED L-800 SERIES, NO THLD LGTS.
Runway edge markings: 01/19 MARKED WITH YELLOW CONES; DSPLCD THLD MARKED WITH 3 CONES EACH SIDE RY.
RUNWAY 1  RUNWAY 19
Traffic pattern: leftleft
Displaced threshold: 200 ft.200 ft.
Obstructions: 73 ft. trees, 65 ft. from runway, 107 ft. left of centerline
APCH RATIO 3:1 TO DSPLCD THLD.
46 ft. trees, 288 ft. from runway, 42 ft. left of centerline, 6:1 slope to clear
APCH RATIO 10:1 TO DSPLCD THLD.

Airport Ownership and Management from official FAA records

Ownership: Privately-owned
Owner: PINK HILL AERO CLUB
523 TYREE ROAD
KINSTON, NC 28504
Phone 252-560-9918
Manager: ROBERT LONG
523 TYREE ROAD
KINSTON, NC 28504
Phone 252-560-9918

Airport Operational Statistics

Aircraft based on the field: 5
Single engine airplanes: 5
    
Aircraft operations: avg 38/month *
56% local general aviation
22% transient general aviation
22% military
* for 12-month period ending 08 August 2014

Additional Remarks

5' DEEP DITCH ACROSS RY AT THR RY 01 WITH 1' BERM.
78 FT TREES 50 FT FM RY EDGES BOTH SIDES SOUTH HALF OF RY; 40 FT TREES 50 FT FM E EDGE NORTH HALF OF RY.
ARPT IS UNDER SEVERAL MILITARY VR ROUTES. JET ACFT CROSS AP UNDER 500' IN EXCESS OF 200 KNOTS.
NO LINE OF SIGHT BETWEEN RY ENDS.
+5 FT GRAPE VINEYARDS 50 FT LEFT & RIGHT OF CNTRLN FIRST HALF OF RY 19.

Instrument Procedures

There are no published instrument procedures at NR10.

Some nearby airports with instrument procedures:

KDPL - Duplin County Airport (12 nm W)
KOAJ - Albert J Ellis Airport (15 nm SE)
KISO - Kinston Regional Jetport at Stallings Field (18 nm N)
W40 - Mount Olive Municipal Airport (18 nm NW)
KGSB - Seymour Johnson Air Force Base (21 nm NW)
 
Loc | Ops | Rwys | IFR | FBO | Links
Com | Nav | Svcs | Stats | Notes


 
Area around NR10 (Pink Hill Airport)
 
Road maps at: MapQuest Bing Google
 
Aerial photo
WARNING: Photo may not be current or correct
Aerial photo of NR10 (Pink Hill Airport)
Do you have a better or more recent aerial photo of Pink Hill Airport that you would like to share? If so, please send us your photo.

 
Sectional chart

 
Airport distance calculator
Flying to Pink Hill Airport? Find the distance to fly.

From to NR10

Sunrise and sunset
Times for 16-Nov-2018
 Local
(UTC-5)
 Zulu
(UTC)
Morning civil twilight06:2111:21
Sunrise06:4811:48
Sunset17:0422:04
Evening civil twilight17:3122:31

Current date and time
Zulu (UTC)  16-Nov-2018 08:40:45
Local (UTC-5)  16-Nov-2018 03:40:45
 
METAR
KDPL 
12nm W 
160800Z AUTO 27009KT 10SM OVC014 06/04 A2995 RMK AO2
KOAJ 
15nm SE 
160756Z AUTO 26008KT 190V290 10SM OVC015 07/05 A2995 RMK AO2 SLP146 T00670050
KISO 
17nm N 
160800Z AUTO 27009G14KT 10SM OVC016 07/04 A2993 RMK AO2 T00650040
KGSB 
20nm NW 
160756Z AUTO 26016G21KT 10SM OVC014 06/04 A2990 RMK AO2 SLP128 T00640037 $
TAF
KOAJ 
15nm SE 
160528Z 1606/1706 27010G16KT P6SM OVC015 FM160900 28008KT P6SM SKC FM170000 VRB03KT P6SM SKC AMD LTD TO CLD VIS AND WIND
KISO 
17nm N 
160528Z 1606/1706 26010G16KT P6SM OVC015 FM160830 27008KT P6SM SKC FM162300 VRB03KT P6SM SKC AMD LTD TO CLD VIS AND WIND
KGSB 
20nm NW 
160500Z 1605/1711 26012G18KT 9999 OVC012 QNH2987INS TEMPO 1605/1608 OVC015 BECMG 1607/1608 27010G15KT 9999 SCT015 QNH2992INS BECMG 1610/1611 28012KT 9999 SKC QNH2997INS BECMG 1621/1622 29005KT 9999 SKC QNH3000INS TX11/1620Z TN03/1612Z
NOTAMs
Click for the latest NOTAMs
NOTAMs are issued by the DoD/FAA and will open in a separate window not controlled by AirNav.

 

 
 

Would you like to see your business listed on this page?

 If your business provides an interesting product or service to pilots, flight crews, aircraft, or users of the Pink Hill Airport, you should consider listing it here.  To start the listing process, click on the button below
 
Add a business
 

Other Pages about Pink Hill Airport

Update a link
 
Copyright © AirNav, LLC. All rights reserved. Privacy Policy  Contact